sensor_id;sensor_type;location;lat;lon;timestamp;P1;durP1;ratioP1;P2;durP2;ratioP2
52878;SDS011;38747;53.140;6.498;2022-10-28T00:02:14;20.63;;;7.00;;
52878;SDS011;38747;53.140;6.498;2022-10-28T00:04:40;16.90;;;7.60;;
52878;SDS011;38747;53.140;6.498;2022-10-28T00:07:05;14.23;;;7.23;;
52878;SDS011;38747;53.140;6.498;2022-10-28T00:09:31;15.63;;;7.50;;
52878;SDS011;38747;53.140;6.498;2022-10-28T00:11:56;14.97;;;7.73;;
52878;SDS011;38747;53.140;6.498;2022-10-28T00:14:22;15.95;;;7.32;;
52878;SDS011;38747;53.140;6.498;2022-10-28T00:16:48;14.30;;;7.50;;
52878;SDS011;38747;53.140;6.498;2022-10-28T00:19:14;17.00;;;6.90;;
52878;SDS011;38747;53.140;6.498;2022-10-28T00:21:40;13.52;;;6.22;;
52878;SDS011;38747;53.140;6.498;2022-10-28T00:24:08;14.93;;;7.13;;
52878;SDS011;38747;53.140;6.498;2022-10-28T00:26:35;17.60;;;7.85;;
52878;SDS011;38747;53.140;6.498;2022-10-28T00:29:07;13.63;;;7.32;;
52878;SDS011;38747;53.140;6.498;2022-10-28T00:31:35;16.63;;;7.32;;
52878;SDS011;38747;53.140;6.498;2022-10-28T00:34:02;18.02;;;7.95;;
52878;SDS011;38747;53.140;6.498;2022-10-28T00:36:34;18.23;;;7.23;;
52878;SDS011;38747;53.140;6.498;2022-10-28T00:39:02;15.90;;;7.65;;
52878;SDS011;38747;53.140;6.498;2022-10-28T00:41:34;15.07;;;7.18;;
52878;SDS011;38747;53.140;6.498;2022-10-28T00:49:56;14.03;;;6.93;;
52878;SDS011;38747;53.140;6.498;2022-10-28T00:52:28;19.35;;;7.72;;
52878;SDS011;38747;53.140;6.498;2022-10-28T00:54:55;19.77;;;8.00;;
52878;SDS011;38747;53.140;6.498;2022-10-28T00:57:24;15.25;;;7.63;;
52878;SDS011;38747;53.140;6.498;2022-10-28T00:59:52;20.60;;;7.75;;
52878;SDS011;38747;53.140;6.498;2022-10-28T01:02:19;16.57;;;7.97;;
52878;SDS011;38747;53.140;6.498;2022-10-28T01:04:45;16.48;;;7.82;;
52878;SDS011;38747;53.140;6.498;2022-10-28T01:07:12;17.95;;;7.68;;
52878;SDS011;38747;53.140;6.498;2022-10-28T01:09:39;13.50;;;6.80;;
52878;SDS011;38747;53.140;6.498;2022-10-28T01:23:21;16.38;;;7.57;;
52878;SDS011;38747;53.140;6.498;2022-10-28T01:26:01;16.90;;;7.68;;
52878;SDS011;38747;53.140;6.498;2022-10-28T01:31:53;15.40;;;8.18;;
52878;SDS011;38747;53.140;6.498;2022-10-28T01:34:27;21.23;;;7.72;;
52878;SDS011;38747;53.140;6.498;2022-10-28T01:37:10;15.68;;;7.07;;
52878;SDS011;38747;53.140;6.498;2022-10-28T01:44:47;17.75;;;7.82;;
52878;SDS011;38747;53.140;6.498;2022-10-28T01:47:27;18.65;;;7.03;;
52878;SDS011;38747;53.140;6.498;2022-10-28T01:53:05;14.65;;;7.93;;
52878;SDS011;38747;53.140;6.498;2022-10-28T01:55:37;20.37;;;7.50;;
52878;SDS011;38747;53.140;6.498;2022-10-28T01:58:05;14.85;;;7.53;;
52878;SDS011;38747;53.140;6.498;2022-10-28T02:00:33;20.75;;;7.88;;
52878;SDS011;38747;53.140;6.498;2022-10-28T02:03:00;15.57;;;7.85;;
52878;SDS011;38747;53.140;6.498;2022-10-28T02:05:38;18.23;;;8.23;;
52878;SDS011;38747;53.140;6.498;2022-10-28T02:08:14;14.10;;;7.80;;
52878;SDS011;38747;53.140;6.498;2022-10-28T02:14:01;17.13;;;7.88;;
52878;SDS011;38747;53.140;6.498;2022-10-28T02:19:42;18.75;;;8.00;;
52878;SDS011;38747;53.140;6.498;2022-10-28T02:22:17;16.90;;;7.30;;
52878;SDS011;38747;53.140;6.498;2022-10-28T02:24:54;22.90;;;8.23;;
52878;SDS011;38747;53.140;6.498;2022-10-28T02:27:46;16.65;;;7.80;;
52878;SDS011;38747;53.140;6.498;2022-10-28T02:30:23;19.90;;;9.55;;
52878;SDS011;38747;53.140;6.498;2022-10-28T02:32:56;20.10;;;9.10;;
52878;SDS011;38747;53.140;6.498;2022-10-28T02:38:00;19.73;;;9.32;;
52878;SDS011;38747;53.140;6.498;2022-10-28T02:40:31;17.33;;;8.90;;
52878;SDS011;38747;53.140;6.498;2022-10-28T02:42:58;20.20;;;9.75;;
52878;SDS011;38747;53.140;6.498;2022-10-28T02:45:42;20.10;;;9.63;;
52878;SDS011;38747;53.140;6.498;2022-10-28T02:48:21;20.40;;;9.00;;
52878;SDS011;38747;53.140;6.498;2022-10-28T02:51:12;21.00;;;9.48;;
52878;SDS011;38747;53.140;6.498;2022-10-28T02:53:49;19.73;;;9.07;;
52878;SDS011;38747;53.140;6.498;2022-10-28T02:56:18;17.58;;;9.85;;
52878;SDS011;38747;53.140;6.498;2022-10-28T02:58:46;21.83;;;9.32;;
52878;SDS011;38747;53.140;6.498;2022-10-28T03:01:12;24.37;;;9.83;;
52878;SDS011;38747;53.140;6.498;2022-10-28T03:03:38;21.30;;;9.38;;
52878;SDS011;38747;53.140;6.498;2022-10-28T03:06:04;17.35;;;8.70;;
52878;SDS011;38747;53.140;6.498;2022-10-28T03:08:30;15.87;;;8.90;;
52878;SDS011;38747;53.140;6.498;2022-10-28T03:10:55;17.95;;;8.90;;
52878;SDS011;38747;53.140;6.498;2022-10-28T03:13:21;17.63;;;9.60;;
52878;SDS011;38747;53.140;6.498;2022-10-28T03:15:47;20.25;;;9.10;;
52878;SDS011;38747;53.140;6.498;2022-10-28T03:18:12;19.97;;;10.10;;
52878;SDS011;38747;53.140;6.498;2022-10-28T03:20:38;18.08;;;8.77;;
52878;SDS011;38747;53.140;6.498;2022-10-28T03:23:04;16.23;;;7.97;;
52878;SDS011;38747;53.140;6.498;2022-10-28T03:25:29;24.17;;;8.88;;
52878;SDS011;38747;53.140;6.498;2022-10-28T03:27:55;18.07;;;8.23;;
52878;SDS011;38747;53.140;6.498;2022-10-28T03:30:20;23.57;;;8.60;;
52878;SDS011;38747;53.140;6.498;2022-10-28T03:32:46;21.65;;;8.35;;
52878;SDS011;38747;53.140;6.498;2022-10-28T03:35:12;19.77;;;8.70;;
52878;SDS011;38747;53.140;6.498;2022-10-28T03:37:39;19.77;;;8.98;;
52878;SDS011;38747;53.140;6.498;2022-10-28T03:40:07;19.77;;;9.35;;
52878;SDS011;38747;53.140;6.498;2022-10-28T03:42:33;17.30;;;8.53;;
52878;SDS011;38747;53.140;6.498;2022-10-28T03:44:59;20.13;;;9.10;;
52878;SDS011;38747;53.140;6.498;2022-10-28T03:47:24;20.77;;;9.27;;
52878;SDS011;38747;53.140;6.498;2022-10-28T03:49:50;21.42;;;9.50;;
52878;SDS011;38747;53.140;6.498;2022-10-28T03:52:16;20.93;;;9.37;;
52878;SDS011;38747;53.140;6.498;2022-10-28T03:54:41;18.00;;;9.60;;
52878;SDS011;38747;53.140;6.498;2022-10-28T03:57:07;19.52;;;8.20;;
52878;SDS011;38747;53.140;6.498;2022-10-28T03:59:32;18.47;;;8.80;;
52878;SDS011;38747;53.140;6.498;2022-10-28T04:01:58;19.95;;;7.72;;
52878;SDS011;38747;53.140;6.498;2022-10-28T04:04:24;16.87;;;7.63;;
52878;SDS011;38747;53.140;6.498;2022-10-28T04:06:49;15.10;;;7.67;;
52878;SDS011;38747;53.140;6.498;2022-10-28T04:09:15;15.90;;;7.90;;
52878;SDS011;38747;53.140;6.498;2022-10-28T04:11:40;17.00;;;8.20;;
52878;SDS011;38747;53.140;6.498;2022-10-28T04:14:06;18.05;;;8.65;;
52878;SDS011;38747;53.140;6.498;2022-10-28T04:16:31;18.70;;;8.53;;
52878;SDS011;38747;53.140;6.498;2022-10-28T04:18:57;16.45;;;8.60;;
52878;SDS011;38747;53.140;6.498;2022-10-28T04:21:23;19.07;;;8.37;;
52878;SDS011;38747;53.140;6.498;2022-10-28T04:23:48;17.55;;;8.32;;
52878;SDS011;38747;53.140;6.498;2022-10-28T04:26:14;16.53;;;8.87;;
52878;SDS011;38747;53.140;6.498;2022-10-28T04:28:40;23.20;;;8.77;;
52878;SDS011;38747;53.140;6.498;2022-10-28T04:31:05;17.77;;;8.47;;
52878;SDS011;38747;53.140;6.498;2022-10-28T04:33:31;17.80;;;8.40;;
52878;SDS011;38747;53.140;6.498;2022-10-28T04:35:57;16.00;;;8.02;;
52878;SDS011;38747;53.140;6.498;2022-10-28T04:38:22;16.73;;;8.53;;
52878;SDS011;38747;53.140;6.498;2022-10-28T04:40:48;20.80;;;9.90;;
52878;SDS011;38747;53.140;6.498;2022-10-28T04:43:14;21.55;;;9.85;;
52878;SDS011;38747;53.140;6.498;2022-10-28T04:45:40;21.00;;;9.83;;
52878;SDS011;38747;53.140;6.498;2022-10-28T04:48:07;19.52;;;10.32;;
52878;SDS011;38747;53.140;6.498;2022-10-28T04:50:34;20.23;;;10.82;;
52878;SDS011;38747;53.140;6.498;2022-10-28T04:52:59;20.20;;;10.50;;
52878;SDS011;38747;53.140;6.498;2022-10-28T04:55:25;22.50;;;11.13;;
52878;SDS011;38747;53.140;6.498;2022-10-28T04:57:54;21.03;;;10.73;;
52878;SDS011;38747;53.140;6.498;2022-10-28T05:00:21;22.70;;;11.05;;
52878;SDS011;38747;53.140;6.498;2022-10-28T05:02:47;27.85;;;11.55;;
52878;SDS011;38747;53.140;6.498;2022-10-28T05:05:13;24.93;;;11.03;;
52878;SDS011;38747;53.140;6.498;2022-10-28T05:07:39;25.27;;;11.38;;
52878;SDS011;38747;53.140;6.498;2022-10-28T05:10:04;24.27;;;11.30;;
52878;SDS011;38747;53.140;6.498;2022-10-28T05:12:30;24.20;;;10.67;;
52878;SDS011;38747;53.140;6.498;2022-10-28T05:14:56;24.75;;;11.38;;
52878;SDS011;38747;53.140;6.498;2022-10-28T05:17:21;24.10;;;11.53;;
52878;SDS011;38747;53.140;6.498;2022-10-28T05:19:47;21.58;;;11.20;;
52878;SDS011;38747;53.140;6.498;2022-10-28T05:22:13;24.00;;;11.20;;
52878;SDS011;38747;53.140;6.498;2022-10-28T05:24:38;22.00;;;10.87;;
52878;SDS011;38747;53.140;6.498;2022-10-28T05:27:04;19.73;;;10.75;;
52878;SDS011;38747;53.140;6.498;2022-10-28T05:29:30;20.60;;;11.77;;
52878;SDS011;38747;53.140;6.498;2022-10-28T05:31:55;24.05;;;11.55;;
52878;SDS011;38747;53.140;6.498;2022-10-28T05:34:21;21.70;;;11.17;;
52878;SDS011;38747;53.140;6.498;2022-10-28T05:36:47;23.40;;;11.55;;
52878;SDS011;38747;53.140;6.498;2022-10-28T05:39:14;28.40;;;12.25;;
52878;SDS011;38747;53.140;6.498;2022-10-28T05:41:40;24.03;;;11.63;;
52878;SDS011;38747;53.140;6.498;2022-10-28T05:44:06;25.60;;;11.93;;
52878;SDS011;38747;53.140;6.498;2022-10-28T05:46:32;24.17;;;12.33;;
52878;SDS011;38747;53.140;6.498;2022-10-28T05:48:57;24.20;;;11.15;;
52878;SDS011;38747;53.140;6.498;2022-10-28T05:51:23;18.90;;;10.77;;
52878;SDS011;38747;53.140;6.498;2022-10-28T05:53:49;22.75;;;12.02;;
52878;SDS011;38747;53.140;6.498;2022-10-28T05:56:15;21.53;;;10.93;;
52878;SDS011;38747;53.140;6.498;2022-10-28T05:58:41;27.23;;;10.95;;
52878;SDS011;38747;53.140;6.498;2022-10-28T06:01:07;24.83;;;10.82;;
52878;SDS011;38747;53.140;6.498;2022-10-28T06:03:33;26.43;;;11.67;;
52878;SDS011;38747;53.140;6.498;2022-10-28T06:05:59;25.02;;;11.73;;
52878;SDS011;38747;53.140;6.498;2022-10-28T06:08:24;22.37;;;11.47;;
52878;SDS011;38747;53.140;6.498;2022-10-28T06:10:51;22.92;;;11.43;;
52878;SDS011;38747;53.140;6.498;2022-10-28T06:13:18;21.42;;;11.05;;
52878;SDS011;38747;53.140;6.498;2022-10-28T06:15:44;22.73;;;11.15;;
52878;SDS011;38747;53.140;6.498;2022-10-28T06:18:16;22.03;;;10.80;;
52878;SDS011;38747;53.140;6.498;2022-10-28T06:20:42;28.13;;;11.80;;
52878;SDS011;38747;53.140;6.498;2022-10-28T06:23:08;24.60;;;11.00;;
52878;SDS011;38747;53.140;6.498;2022-10-28T06:25:33;21.92;;;11.20;;
52878;SDS011;38747;53.140;6.498;2022-10-28T06:27:59;23.07;;;10.93;;
52878;SDS011;38747;53.140;6.498;2022-10-28T06:30:26;21.02;;;10.40;;
52878;SDS011;38747;53.140;6.498;2022-10-28T06:32:55;27.23;;;10.45;;
52878;SDS011;38747;53.140;6.498;2022-10-28T06:35:21;21.00;;;10.73;;
52878;SDS011;38747;53.140;6.498;2022-10-28T06:37:51;18.23;;;10.10;;
52878;SDS011;38747;53.140;6.498;2022-10-28T06:40:21;20.65;;;10.20;;
52878;SDS011;38747;53.140;6.498;2022-10-28T06:42:47;20.70;;;10.55;;
52878;SDS011;38747;53.140;6.498;2022-10-28T06:45:13;23.07;;;10.57;;
52878;SDS011;38747;53.140;6.498;2022-10-28T06:47:38;22.80;;;10.23;;
52878;SDS011;38747;53.140;6.498;2022-10-28T06:50:04;24.17;;;10.63;;
52878;SDS011;38747;53.140;6.498;2022-10-28T06:52:30;21.33;;;10.32;;
52878;SDS011;38747;53.140;6.498;2022-10-28T06:54:56;19.42;;;10.38;;
52878;SDS011;38747;53.140;6.498;2022-10-28T06:57:21;21.60;;;10.80;;
52878;SDS011;38747;53.140;6.498;2022-10-28T06:59:48;19.90;;;10.38;;
52878;SDS011;38747;53.140;6.498;2022-10-28T07:02:14;21.47;;;10.77;;
52878;SDS011;38747;53.140;6.498;2022-10-28T07:04:40;25.73;;;10.45;;
52878;SDS011;38747;53.140;6.498;2022-10-28T07:07:06;20.50;;;10.13;;
52878;SDS011;38747;53.140;6.498;2022-10-28T07:09:32;26.80;;;10.63;;
52878;SDS011;38747;53.140;6.498;2022-10-28T07:11:58;19.10;;;10.00;;
52878;SDS011;38747;53.140;6.498;2022-10-28T07:14:23;23.40;;;10.35;;
52878;SDS011;38747;53.140;6.498;2022-10-28T07:16:49;25.97;;;10.70;;
52878;SDS011;38747;53.140;6.498;2022-10-28T07:19:15;20.13;;;9.65;;
52878;SDS011;38747;53.140;6.498;2022-10-28T07:21:40;23.23;;;10.03;;
52878;SDS011;38747;53.140;6.498;2022-10-28T07:24:06;20.00;;;9.88;;
52878;SDS011;38747;53.140;6.498;2022-10-28T07:26:32;19.60;;;9.53;;
52878;SDS011;38747;53.140;6.498;2022-10-28T07:29:00;22.60;;;9.45;;
52878;SDS011;38747;53.140;6.498;2022-10-28T07:31:26;21.43;;;9.33;;
52878;SDS011;38747;53.140;6.498;2022-10-28T07:33:52;18.52;;;10.10;;
52878;SDS011;38747;53.140;6.498;2022-10-28T07:36:24;22.30;;;9.95;;
52878;SDS011;38747;53.140;6.498;2022-10-28T07:38:50;21.80;;;9.47;;
52878;SDS011;38747;53.140;6.498;2022-10-28T07:41:17;23.35;;;9.60;;
52878;SDS011;38747;53.140;6.498;2022-10-28T07:43:44;20.83;;;8.90;;
52878;SDS011;38747;53.140;6.498;2022-10-28T07:46:10;16.60;;;8.73;;
52878;SDS011;38747;53.140;6.498;2022-10-28T07:48:35;21.67;;;8.93;;
52878;SDS011;38747;53.140;6.498;2022-10-28T07:51:05;20.25;;;8.55;;
52878;SDS011;38747;53.140;6.498;2022-10-28T07:53:31;23.07;;;8.50;;
52878;SDS011;38747;53.140;6.498;2022-10-28T07:55:59;21.05;;;7.82;;
52878;SDS011;38747;53.140;6.498;2022-10-28T07:58:25;16.50;;;8.00;;
52878;SDS011;38747;53.140;6.498;2022-10-28T08:00:52;19.83;;;7.55;;
52878;SDS011;38747;53.140;6.498;2022-10-28T08:03:18;20.23;;;7.97;;
52878;SDS011;38747;53.140;6.498;2022-10-28T08:05:43;15.70;;;7.77;;
52878;SDS011;38747;53.140;6.498;2022-10-28T08:08:09;17.92;;;7.60;;
52878;SDS011;38747;53.140;6.498;2022-10-28T08:10:35;14.50;;;7.30;;
52878;SDS011;38747;53.140;6.498;2022-10-28T08:13:01;16.60;;;7.60;;
52878;SDS011;38747;53.140;6.498;2022-10-28T08:15:27;14.40;;;7.30;;
52878;SDS011;38747;53.140;6.498;2022-10-28T08:17:54;13.23;;;6.75;;
52878;SDS011;38747;53.140;6.498;2022-10-28T08:20:20;15.30;;;7.30;;
52878;SDS011;38747;53.140;6.498;2022-10-28T08:22:46;17.67;;;6.80;;
52878;SDS011;38747;53.140;6.498;2022-10-28T08:25:12;15.18;;;6.40;;
52878;SDS011;38747;53.140;6.498;2022-10-28T08:27:37;14.17;;;6.73;;
52878;SDS011;38747;53.140;6.498;2022-10-28T08:30:04;14.63;;;6.77;;
52878;SDS011;38747;53.140;6.498;2022-10-28T08:32:30;17.52;;;6.50;;
52878;SDS011;38747;53.140;6.498;2022-10-28T08:34:56;15.15;;;6.40;;
52878;SDS011;38747;53.140;6.498;2022-10-28T08:37:25;14.80;;;6.53;;
52878;SDS011;38747;53.140;6.498;2022-10-28T08:39:50;14.60;;;6.25;;
52878;SDS011;38747;53.140;6.498;2022-10-28T08:42:32;12.20;;;6.00;;
52878;SDS011;38747;53.140;6.498;2022-10-28T08:48:14;17.05;;;6.15;;
52878;SDS011;38747;53.140;6.498;2022-10-28T08:50:48;18.10;;;5.93;;
52878;SDS011;38747;53.140;6.498;2022-10-28T08:53:20;13.27;;;5.83;;
52878;SDS011;38747;53.140;6.498;2022-10-28T08:55:51;13.90;;;5.45;;
52878;SDS011;38747;53.140;6.498;2022-10-28T08:58:29;16.55;;;6.00;;
52878;SDS011;38747;53.140;6.498;2022-10-28T09:00:58;16.33;;;6.03;;
52878;SDS011;38747;53.140;6.498;2022-10-28T09:03:25;15.97;;;6.27;;
52878;SDS011;38747;53.140;6.498;2022-10-28T09:05:53;11.25;;;5.70;;
52878;SDS011;38747;53.140;6.498;2022-10-28T09:08:26;15.95;;;5.70;;
52878;SDS011;38747;53.140;6.498;2022-10-28T09:16:47;18.03;;;6.83;;
52878;SDS011;38747;53.140;6.498;2022-10-28T09:27:13;13.23;;;5.22;;
52878;SDS011;38747;53.140;6.498;2022-10-28T09:32:44;11.10;;;4.47;;
52878;SDS011;38747;53.140;6.498;2022-10-28T09:35:23;18.13;;;4.88;;
52878;SDS011;38747;53.140;6.498;2022-10-28T09:37:53;10.70;;;4.32;;
52878;SDS011;38747;53.140;6.498;2022-10-28T09:40:24;14.73;;;4.95;;
52878;SDS011;38747;53.140;6.498;2022-10-28T09:45:44;15.65;;;5.00;;
52878;SDS011;38747;53.140;6.498;2022-10-28T09:48:25;15.57;;;5.05;;
52878;SDS011;38747;53.140;6.498;2022-10-28T09:51:15;13.57;;;4.65;;
52878;SDS011;38747;53.140;6.498;2022-10-28T09:53:55;14.27;;;4.80;;
52878;SDS011;38747;53.140;6.498;2022-10-28T09:56:22;11.50;;;4.57;;
52878;SDS011;38747;53.140;6.498;2022-10-28T09:58:48;15.25;;;4.63;;
52878;SDS011;38747;53.140;6.498;2022-10-28T10:01:15;14.63;;;4.88;;
52878;SDS011;38747;53.140;6.498;2022-10-28T10:03:42;14.07;;;5.07;;
52878;SDS011;38747;53.140;6.498;2022-10-28T10:06:14;15.53;;;4.63;;
52878;SDS011;38747;53.140;6.498;2022-10-28T10:08:47;10.50;;;4.95;;
52878;SDS011;38747;53.140;6.498;2022-10-28T10:11:27;16.38;;;4.75;;
52878;SDS011;38747;53.140;6.498;2022-10-28T10:14:02;17.98;;;5.00;;
52878;SDS011;38747;53.140;6.498;2022-10-28T10:19:00;13.75;;;5.22;;
52878;SDS011;38747;53.140;6.498;2022-10-28T10:21:40;12.95;;;4.70;;
52878;SDS011;38747;53.140;6.498;2022-10-28T10:24:40;15.50;;;4.35;;
52878;SDS011;38747;53.140;6.498;2022-10-28T10:27:01;13.02;;;4.93;;
52878;SDS011;38747;53.140;6.498;2022-10-28T10:29:43;16.63;;;4.67;;
52878;SDS011;38747;53.140;6.498;2022-10-28T10:32:18;16.10;;;5.28;;
52878;SDS011;38747;53.140;6.498;2022-10-28T10:35:01;11.35;;;4.47;;
52878;SDS011;38747;53.140;6.498;2022-10-28T10:37:33;16.98;;;4.90;;
52878;SDS011;38747;53.140;6.498;2022-10-28T10:40:11;15.23;;;4.90;;
52878;SDS011;38747;53.140;6.498;2022-10-28T10:43:42;12.73;;;4.87;;
52878;SDS011;38747;53.140;6.498;2022-10-28T10:46:03;14.60;;;4.93;;
52878;SDS011;38747;53.140;6.498;2022-10-28T10:48:42;15.68;;;5.30;;
52878;SDS011;38747;53.140;6.498;2022-10-28T10:51:10;14.60;;;4.95;;
52878;SDS011;38747;53.140;6.498;2022-10-28T10:53:45;14.38;;;4.97;;
52878;SDS011;38747;53.140;6.498;2022-10-28T10:56:12;12.43;;;4.70;;
52878;SDS011;38747;53.140;6.498;2022-10-28T10:58:52;14.38;;;4.53;;
52878;SDS011;38747;53.140;6.498;2022-10-28T11:01:23;10.77;;;4.47;;
52878;SDS011;38747;53.140;6.498;2022-10-28T11:03:53;13.23;;;5.25;;
52878;SDS011;38747;53.140;6.498;2022-10-28T11:06:28;12.75;;;4.32;;
52878;SDS011;38747;53.140;6.498;2022-10-28T11:08:57;17.53;;;4.73;;
52878;SDS011;38747;53.140;6.498;2022-10-28T11:11:42;12.77;;;4.90;;
52878;SDS011;38747;53.140;6.498;2022-10-28T11:16:45;13.37;;;4.93;;
52878;SDS011;38747;53.140;6.498;2022-10-28T11:29:46;12.80;;;4.45;;
52878;SDS011;38747;53.140;6.498;2022-10-28T11:40:51;15.73;;;4.47;;
52878;SDS011;38747;53.140;6.498;2022-10-28T11:56:46;12.93;;;4.53;;
52878;SDS011;38747;53.140;6.498;2022-10-28T12:04:53;15.63;;;4.78;;
52878;SDS011;38747;53.140;6.498;2022-10-28T12:07:28;11.63;;;4.10;;
52878;SDS011;38747;53.140;6.498;2022-10-28T12:10:15;14.00;;;4.28;;
52878;SDS011;38747;53.140;6.498;2022-10-28T12:20:49;13.43;;;4.70;;
52878;SDS011;38747;53.140;6.498;2022-10-28T12:23:23;11.55;;;4.40;;
52878;SDS011;38747;53.140;6.498;2022-10-28T12:25:50;15.68;;;4.85;;
52878;SDS011;38747;53.140;6.498;2022-10-28T12:28:20;12.23;;;4.27;;
52878;SDS011;38747;53.140;6.498;2022-10-28T12:30:50;15.77;;;4.93;;
52878;SDS011;38747;53.140;6.498;2022-10-28T12:33:28;15.25;;;4.35;;
52878;SDS011;38747;53.140;6.498;2022-10-28T12:38:33;13.73;;;4.40;;
52878;SDS011;38747;53.140;6.498;2022-10-28T12:41:07;11.67;;;3.93;;
52878;SDS011;38747;53.140;6.498;2022-10-28T12:43:41;11.90;;;4.20;;
52878;SDS011;38747;53.140;6.498;2022-10-28T12:46:21;14.82;;;4.50;;
52878;SDS011;38747;53.140;6.498;2022-10-28T12:51:49;12.35;;;4.78;;
52878;SDS011;38747;53.140;6.498;2022-10-28T12:56:55;13.00;;;4.63;;
52878;SDS011;38747;53.140;6.498;2022-10-28T12:59:32;14.77;;;4.47;;
52878;SDS011;38747;53.140;6.498;2022-10-28T13:02:01;13.73;;;4.85;;
52878;SDS011;38747;53.140;6.498;2022-10-28T13:04:39;12.90;;;4.17;;
52878;SDS011;38747;53.140;6.498;2022-10-28T13:12:33;17.85;;;4.78;;
52878;SDS011;38747;53.140;6.498;2022-10-28T13:18:13;16.57;;;4.67;;
52878;SDS011;38747;53.140;6.498;2022-10-28T13:21:09;12.32;;;4.47;;
52878;SDS011;38747;53.140;6.498;2022-10-28T13:23:52;17.92;;;5.28;;
52878;SDS011;38747;53.140;6.498;2022-10-28T13:26:30;14.68;;;4.43;;
52878;SDS011;38747;53.140;6.498;2022-10-28T13:29:02;22.25;;;5.05;;
52878;SDS011;38747;53.140;6.498;2022-10-28T13:31:41;15.07;;;4.97;;
52878;SDS011;38747;53.140;6.498;2022-10-28T13:34:10;13.13;;;4.30;;
52878;SDS011;38747;53.140;6.498;2022-10-28T13:36:56;16.50;;;4.85;;
52878;SDS011;38747;53.140;6.498;2022-10-28T13:44:59;14.67;;;4.50;;
52878;SDS011;38747;53.140;6.498;2022-10-28T13:52:39;14.03;;;4.97;;
52878;SDS011;38747;53.140;6.498;2022-10-28T13:57:38;14.75;;;4.90;;
52878;SDS011;38747;53.140;6.498;2022-10-28T14:05:18;18.63;;;5.40;;
52878;SDS011;38747;53.140;6.498;2022-10-28T14:08:06;14.43;;;5.25;;
52878;SDS011;38747;53.140;6.498;2022-10-28T14:10:54;15.02;;;4.88;;
52878;SDS011;38747;53.140;6.498;2022-10-28T14:13:26;19.52;;;5.47;;
52878;SDS011;38747;53.140;6.498;2022-10-28T14:24:32;13.82;;;5.82;;
52878;SDS011;38747;53.140;6.498;2022-10-28T14:40:22;13.57;;;5.00;;
52878;SDS011;38747;53.140;6.498;2022-10-28T14:42:57;15.55;;;5.30;;
52878;SDS011;38747;53.140;6.498;2022-10-28T14:45:39;14.77;;;5.07;;
52878;SDS011;38747;53.140;6.498;2022-10-28T14:48:41;14.55;;;4.65;;
52878;SDS011;38747;53.140;6.498;2022-10-28T14:51:17;15.43;;;5.13;;
52878;SDS011;38747;53.140;6.498;2022-10-28T14:53:46;15.82;;;4.50;;
52878;SDS011;38747;53.140;6.498;2022-10-28T14:59:21;17.80;;;4.83;;
52878;SDS011;38747;53.140;6.498;2022-10-28T15:02:08;15.57;;;5.15;;
52878;SDS011;38747;53.140;6.498;2022-10-28T15:04:43;18.83;;;5.93;;
52878;SDS011;38747;53.140;6.498;2022-10-28T15:07:11;15.98;;;4.38;;
52878;SDS011;38747;53.140;6.498;2022-10-28T15:09:38;21.13;;;4.80;;
52878;SDS011;38747;53.140;6.498;2022-10-28T15:12:07;14.93;;;5.13;;
52878;SDS011;38747;53.140;6.498;2022-10-28T15:14:47;14.25;;;5.00;;
52878;SDS011;38747;53.140;6.498;2022-10-28T15:17:19;19.95;;;5.32;;
52878;SDS011;38747;53.140;6.498;2022-10-28T15:20:03;17.27;;;5.45;;
52878;SDS011;38747;53.140;6.498;2022-10-28T15:22:45;17.25;;;5.45;;
52878;SDS011;38747;53.140;6.498;2022-10-28T15:25:11;14.60;;;5.40;;
52878;SDS011;38747;53.140;6.498;2022-10-28T15:27:39;16.67;;;4.80;;
52878;SDS011;38747;53.140;6.498;2022-10-28T15:30:12;18.77;;;5.30;;
52878;SDS011;38747;53.140;6.498;2022-10-28T15:32:43;18.33;;;5.10;;
52878;SDS011;38747;53.140;6.498;2022-10-28T15:40:54;18.88;;;5.20;;
52878;SDS011;38747;53.140;6.498;2022-10-28T15:43:25;13.82;;;4.90;;
52878;SDS011;38747;53.140;6.498;2022-10-28T15:46:06;16.38;;;5.22;;
52878;SDS011;38747;53.140;6.498;2022-10-28T15:48:39;13.27;;;4.88;;
52878;SDS011;38747;53.140;6.498;2022-10-28T15:51:13;14.17;;;4.83;;
52878;SDS011;38747;53.140;6.498;2022-10-28T15:53:42;14.63;;;5.13;;
52878;SDS011;38747;53.140;6.498;2022-10-28T15:58:39;13.45;;;5.10;;
52878;SDS011;38747;53.140;6.498;2022-10-28T16:01:25;20.88;;;5.35;;
52878;SDS011;38747;53.140;6.498;2022-10-28T16:03:51;16.10;;;5.57;;
52878;SDS011;38747;53.140;6.498;2022-10-28T16:06:21;15.90;;;5.72;;
52878;SDS011;38747;53.140;6.498;2022-10-28T16:11:33;15.20;;;4.97;;
52878;SDS011;38747;53.140;6.498;2022-10-28T16:14:06;17.27;;;5.00;;
52878;SDS011;38747;53.140;6.498;2022-10-28T16:16:53;13.20;;;5.32;;
52878;SDS011;38747;53.140;6.498;2022-10-28T16:19:28;14.13;;;4.95;;
52878;SDS011;38747;53.140;6.498;2022-10-28T16:22:00;15.73;;;4.95;;
52878;SDS011;38747;53.140;6.498;2022-10-28T16:24:25;15.77;;;4.97;;
52878;SDS011;38747;53.140;6.498;2022-10-28T16:26:51;12.95;;;4.97;;
52878;SDS011;38747;53.140;6.498;2022-10-28T16:29:17;13.63;;;5.13;;
52878;SDS011;38747;53.140;6.498;2022-10-28T16:31:42;17.93;;;5.23;;
52878;SDS011;38747;53.140;6.498;2022-10-28T16:34:12;13.75;;;4.65;;
52878;SDS011;38747;53.140;6.498;2022-10-28T16:36:39;16.52;;;5.13;;
52878;SDS011;38747;53.140;6.498;2022-10-28T16:39:14;13.10;;;5.20;;
52878;SDS011;38747;53.140;6.498;2022-10-28T16:41:39;16.90;;;5.20;;
52878;SDS011;38747;53.140;6.498;2022-10-28T16:44:15;13.88;;;5.18;;
52878;SDS011;38747;53.140;6.498;2022-10-28T16:46:42;16.17;;;5.00;;
52878;SDS011;38747;53.140;6.498;2022-10-28T16:49:08;19.63;;;5.40;;
52878;SDS011;38747;53.140;6.498;2022-10-28T16:51:33;19.53;;;5.30;;
52878;SDS011;38747;53.140;6.498;2022-10-28T16:53:59;13.97;;;4.50;;
52878;SDS011;38747;53.140;6.498;2022-10-28T16:56:24;15.33;;;5.17;;
52878;SDS011;38747;53.140;6.498;2022-10-28T16:58:50;15.02;;;5.20;;
52878;SDS011;38747;53.140;6.498;2022-10-28T17:01:19;15.77;;;5.03;;
52878;SDS011;38747;53.140;6.498;2022-10-28T17:03:46;16.63;;;5.03;;
52878;SDS011;38747;53.140;6.498;2022-10-28T17:06:11;16.60;;;5.22;;
52878;SDS011;38747;53.140;6.498;2022-10-28T17:08:37;16.10;;;5.10;;
52878;SDS011;38747;53.140;6.498;2022-10-28T17:11:03;22.27;;;5.47;;
52878;SDS011;38747;53.140;6.498;2022-10-28T17:13:28;17.83;;;4.77;;
52878;SDS011;38747;53.140;6.498;2022-10-28T17:15:55;16.60;;;4.93;;
52878;SDS011;38747;53.140;6.498;2022-10-28T17:18:20;15.85;;;5.15;;
52878;SDS011;38747;53.140;6.498;2022-10-28T17:20:56;20.38;;;5.13;;
52878;SDS011;38747;53.140;6.498;2022-10-28T17:23:23;13.67;;;4.57;;
52878;SDS011;38747;53.140;6.498;2022-10-28T17:25:59;17.58;;;4.72;;
52878;SDS011;38747;53.140;6.498;2022-10-28T17:28:25;18.15;;;4.18;;
52878;SDS011;38747;53.140;6.498;2022-10-28T17:30:51;14.77;;;4.17;;
52878;SDS011;38747;53.140;6.498;2022-10-28T17:33:18;16.75;;;4.13;;
52878;SDS011;38747;53.140;6.498;2022-10-28T17:35:43;14.97;;;4.40;;
52878;SDS011;38747;53.140;6.498;2022-10-28T17:38:09;18.15;;;4.97;;
52878;SDS011;38747;53.140;6.498;2022-10-28T17:40:34;17.50;;;4.33;;
52878;SDS011;38747;53.140;6.498;2022-10-28T17:43:00;17.75;;;4.40;;
52878;SDS011;38747;53.140;6.498;2022-10-28T17:45:26;15.77;;;4.00;;
52878;SDS011;38747;53.140;6.498;2022-10-28T17:47:51;16.02;;;4.15;;
52878;SDS011;38747;53.140;6.498;2022-10-28T17:50:17;17.47;;;4.20;;
52878;SDS011;38747;53.140;6.498;2022-10-28T17:52:46;17.50;;;4.45;;